createdAt,value
2019-04-06T00:00:47.585Z,100551.16
2019-04-06T00:03:20.965Z,100550.30
2019-04-06T00:05:54.867Z,100546.48
2019-04-06T00:08:28.518Z,100553.43
2019-04-06T00:11:01.949Z,100552.13
2019-04-06T00:13:35.307Z,100548.27
2019-04-06T00:16:10.338Z,100545.25
2019-04-06T00:18:43.489Z,100545.25
2019-04-06T00:21:17.016Z,100542.69
2019-04-06T00:23:50.369Z,100547.03
2019-04-06T00:26:23.810Z,100540.56
2019-04-06T00:28:57.151Z,100541.42
2019-04-06T00:31:30.553Z,100538.45
2019-04-06T00:34:04.118Z,100540.23
2019-04-06T00:36:37.488Z,100535.44
2019-04-06T00:39:10.845Z,100526.41
2019-04-06T00:41:44.297Z,100531.20
2019-04-06T00:44:17.716Z,100527.73
2019-04-06T00:46:51.375Z,100531.23
2019-04-06T00:49:24.850Z,100529.52
2019-04-06T00:51:58.388Z,100536.06
2019-04-06T00:54:32.091Z,100537.41
2019-04-06T00:57:05.667Z,100539.13
2019-04-06T00:59:40.773Z,100533.50
2019-04-06T01:02:14.210Z,100528.81
2019-04-06T01:04:47.567Z,100533.58
2019-04-06T01:07:23.088Z,100526.18
2019-04-06T01:09:56.105Z,100518.41
2019-04-06T01:12:30.799Z,100514.09
2019-04-06T01:15:05.584Z,100511.08
2019-04-06T01:17:38.948Z,100515.44
2019-04-06T01:20:12.480Z,100522.83
2019-04-06T01:22:47.443Z,100537.63
2019-04-06T01:25:20.820Z,100529.85
2019-04-06T01:27:54.179Z,100526.39
2019-04-06T01:30:27.622Z,100527.29
2019-04-06T01:33:01.063Z,100534.66
2019-04-06T01:35:34.410Z,100529.07
2019-04-06T01:38:07.812Z,100530.34
2019-04-06T01:40:41.212Z,100525.16
2019-04-06T01:43:14.674Z,100520.89
2019-04-06T01:45:48.061Z,100523.05
2019-04-06T01:48:21.756Z,100525.23
2019-04-06T01:50:55.305Z,100524.83
2019-04-06T01:53:28.696Z,100524.86
2019-04-06T01:56:02.609Z,100520.96
2019-04-06T01:58:36.281Z,100520.14
2019-04-06T02:01:09.929Z,100525.75
2019-04-06T02:03:43.673Z,100529.28
2019-04-06T02:06:17.237Z,100530.14
2019-04-06T02:08:50.665Z,100524.08
2019-04-06T02:11:24.078Z,100523.66
2019-04-06T02:13:57.510Z,100523.66
2019-04-06T02:16:31.012Z,100523.66
2019-04-06T02:19:04.369Z,100526.30
2019-04-06T02:21:37.658Z,100521.58
2019-04-06T02:24:11.158Z,100518.56
2019-04-06T02:26:44.453Z,100517.27
2019-04-06T02:29:17.813Z,100523.80
2019-04-06T02:31:51.146Z,100517.78
2019-04-06T02:34:24.535Z,100525.14
2019-04-06T02:36:57.878Z,100526.84
2019-04-06T02:39:31.234Z,100530.81
2019-04-06T02:42:04.610Z,100523.05
2019-04-06T02:44:38.061Z,100523.45
2019-04-06T02:47:11.400Z,100530.88
2019-04-06T02:49:44.776Z,100525.23
2019-04-06T02:52:18.179Z,100519.22
2019-04-06T02:54:51.971Z,100523.56
2019-04-06T02:57:25.354Z,100520.55
2019-04-06T02:59:58.779Z,100519.25
2019-04-06T03:02:32.057Z,100516.64
2019-04-06T03:05:06.579Z,100511.89
2019-04-06T03:07:39.889Z,100511.48
2019-04-06T03:10:13.418Z,100510.63
2019-04-06T03:12:46.751Z,100505.05
2019-04-06T03:15:20.080Z,100503.30
2019-04-06T03:17:53.569Z,100502.06
2019-04-06T03:20:27.191Z,100509.01
2019-04-06T03:23:00.769Z,100507.27
2019-04-06T03:25:34.181Z,100509.42
2019-04-06T03:28:07.566Z,100510.75
2019-04-06T03:30:41.255Z,100507.77
2019-04-06T03:33:14.701Z,100507.33
2019-04-06T03:35:49.991Z,100510.72
2019-04-06T03:38:23.356Z,100502.51
2019-04-06T03:40:56.794Z,100510.69
2019-04-06T03:43:30.178Z,100514.36
2019-04-06T03:46:03.605Z,100501.52
2019-04-06T03:48:36.992Z,100504.65
2019-04-06T03:51:10.131Z,100504.38
2019-04-06T03:53:43.477Z,100500.13
2019-04-06T03:56:16.872Z,100509.38
2019-04-06T03:58:52.214Z,100511.91
2019-04-06T04:01:27.565Z,100502.16
2019-04-06T04:04:01.190Z,100503.64
2019-04-06T04:06:34.862Z,100509.42
2019-04-06T04:09:08.513Z,100506.80
2019-04-06T04:11:41.879Z,100507.16
2019-04-06T04:14:15.508Z,100499.38
2019-04-06T04:16:48.870Z,100487.11
2019-04-06T04:19:22.361Z,100486.22
2019-04-06T04:21:55.889Z,100489.26
2019-04-06T04:24:29.224Z,100488.15
2019-04-06T04:27:02.548Z,100483.55
2019-04-06T04:29:35.762Z,100482.97
2019-04-06T04:32:09.238Z,100482.29
2019-04-06T04:34:42.953Z,100490.02
2019-04-06T04:37:16.612Z,100488.66
2019-04-06T04:39:50.159Z,100481.73
2019-04-06T04:42:23.667Z,100487.30
2019-04-06T04:44:57.066Z,100489.84
2019-04-06T04:47:30.620Z,100483.30
2019-04-06T04:50:05.212Z,100486.72
2019-04-06T04:52:38.714Z,100489.79
2019-04-06T04:55:12.361Z,100494.56
2019-04-06T04:57:45.801Z,100490.70
2019-04-06T05:00:19.160Z,100491.55
2019-04-06T05:02:52.577Z,100494.16
2019-04-06T05:05:25.681Z,100502.00
2019-04-06T05:07:59.258Z,100503.31
2019-04-06T05:10:32.745Z,100508.53
2019-04-06T05:13:06.169Z,100508.19
2019-04-06T05:15:59.211Z,100503.44
2019-04-06T05:18:32.707Z,100505.20
2019-04-06T05:21:06.298Z,100510.42
2019-04-06T05:23:39.743Z,100508.14
2019-04-06T05:26:13.300Z,100511.25
2019-04-06T05:28:46.877Z,100507.81
2019-04-06T05:31:20.264Z,100513.21
2019-04-06T05:33:54.068Z,100514.52
2019-04-06T05:36:28.546Z,100512.34
2019-04-06T05:39:02.044Z,100507.98
2019-04-06T05:41:36.431Z,100517.23
2019-04-06T05:44:09.773Z,100520.92
2019-04-06T05:46:43.175Z,100523.24
2019-04-06T05:49:16.610Z,100524.22
2019-04-06T05:51:50.263Z,100520.84
2019-04-06T05:54:25.389Z,100525.97
2019-04-06T05:56:58.700Z,100526.06
2019-04-06T05:59:32.075Z,100527.92
2019-04-06T06:02:05.393Z,100521.03
2019-04-06T06:04:40.469Z,100532.29
2019-04-06T06:07:14.005Z,100526.73
2019-04-06T06:09:47.353Z,100532.10
2019-04-06T06:12:20.832Z,100537.84
2019-04-06T06:14:54.377Z,100534.42
2019-04-06T06:17:27.759Z,100531.02
2019-04-06T06:20:01.295Z,100535.84
2019-04-06T06:22:34.873Z,100539.36
2019-04-06T06:25:09.176Z,100539.95
2019-04-06T06:27:42.691Z,100545.53
2019-04-06T06:30:16.210Z,100540.81
2019-04-06T06:32:49.521Z,100543.58
2019-04-06T06:35:23.029Z,100548.65
2019-04-06T06:37:56.734Z,100551.21
2019-04-06T06:40:30.137Z,100545.20
2019-04-06T06:43:03.635Z,100547.95
2019-04-06T06:45:37.140Z,100547.96
2019-04-06T06:48:10.466Z,100551.97
2019-04-06T06:50:43.886Z,100552.87
2019-04-06T06:53:17.186Z,100552.06
2019-04-06T06:55:52.107Z,100552.13
2019-04-06T06:58:26.260Z,100552.17
2019-04-06T07:00:59.901Z,100553.11
2019-04-06T07:03:33.283Z,100543.53
2019-04-06T07:06:06.913Z,100544.44
2019-04-06T07:08:40.460Z,100548.02
2019-04-06T07:11:13.833Z,100544.55
2019-04-06T07:13:47.161Z,100541.89
2019-04-06T07:16:20.777Z,100542.84
2019-04-06T07:18:54.323Z,100542.53
2019-04-06T07:24:01.654Z,100558.23
2019-04-06T07:26:34.956Z,100540.92
2019-04-06T07:29:08.356Z,100549.16
2019-04-06T07:31:42.003Z,100551.81
2019-04-06T07:34:15.340Z,100553.70
2019-04-06T07:36:49.110Z,100546.73
2019-04-06T07:39:22.609Z,100550.25
2019-04-06T07:41:55.829Z,100546.42
2019-04-06T07:44:29.477Z,100549.52
2019-04-06T07:47:03.214Z,100544.00
2019-04-06T07:49:36.792Z,100547.91
2019-04-06T07:52:10.329Z,100547.05
2019-04-06T07:54:44.716Z,100547.50
2019-04-06T07:57:18.081Z,100549.70
2019-04-06T07:59:51.586Z,100544.09
2019-04-06T08:02:25.159Z,100549.80
2019-04-06T08:04:58.975Z,100548.50
2019-04-06T08:07:32.834Z,100547.23
2019-04-06T08:10:07.518Z,100548.91
2019-04-06T08:12:40.940Z,100540.58
2019-04-06T08:15:15.371Z,100548.63
2019-04-06T08:17:48.896Z,100551.90
2019-04-06T08:20:22.231Z,100545.19
2019-04-06T08:22:55.821Z,100547.94
2019-04-06T08:25:30.212Z,100544.64
2019-04-06T08:28:03.548Z,100544.34
2019-04-06T08:30:45.361Z,100536.81
2019-04-06T08:33:11.980Z,100539.73
2019-04-06T08:35:45.322Z,100548.14
2019-04-06T08:38:18.748Z,100541.86
2019-04-06T08:40:52.211Z,100541.71
2019-04-06T08:43:25.740Z,100540.62
2019-04-06T08:45:59.070Z,100542.28
2019-04-06T08:48:32.579Z,100533.76
2019-04-06T08:51:06.101Z,100538.37
2019-04-06T08:53:39.436Z,100538.13
2019-04-06T08:56:12.788Z,100537.68
2019-04-06T08:58:46.179Z,100536.61
2019-04-06T09:01:19.550Z,100543.88
2019-04-06T09:03:53.956Z,100542.91
2019-04-06T09:06:28.476Z,100541.66
2019-04-06T09:09:01.772Z,100538.87
2019-04-06T09:11:36.583Z,100538.27
2019-04-06T09:14:09.958Z,100537.23
2019-04-06T09:16:43.402Z,100537.11
2019-04-06T09:19:18.381Z,100537.46
2019-04-06T09:21:51.932Z,100539.39
2019-04-06T09:24:25.420Z,100538.14
2019-04-06T09:26:59.387Z,100540.35
2019-04-06T09:29:32.908Z,100537.69
2019-04-06T09:32:06.312Z,100536.33
2019-04-06T09:34:39.672Z,100530.47
2019-04-06T09:37:13.496Z,100526.33
2019-04-06T09:39:46.921Z,100526.06
2019-04-06T09:42:20.252Z,100529.84
2019-04-06T09:44:53.668Z,100528.59
2019-04-06T09:47:28.731Z,100523.81
2019-04-06T09:50:02.921Z,100522.58
2019-04-06T09:52:36.678Z,100523.41
2019-04-06T09:55:10.248Z,100520.80
2019-04-06T09:57:43.610Z,100514.17
2019-04-06T10:00:17.046Z,100521.67
2019-04-06T10:02:50.357Z,100515.08
2019-04-06T10:05:25.393Z,100516.71
2019-04-06T10:07:58.984Z,100513.64
2019-04-06T10:10:32.325Z,100512.41
2019-04-06T10:13:05.934Z,100514.55
2019-04-06T10:15:39.349Z,100509.12
2019-04-06T10:18:12.810Z,100507.73
2019-04-06T10:20:47.324Z,100508.14
2019-04-06T10:23:20.812Z,100510.53
2019-04-06T10:25:54.424Z,100507.41
2019-04-06T10:28:28.132Z,100515.88
2019-04-06T10:31:01.529Z,100502.06
2019-04-06T10:33:34.837Z,100505.83
2019-04-06T10:36:08.200Z,100502.81
2019-04-06T10:38:41.684Z,100506.20
2019-04-06T10:41:15.191Z,100426.15
2019-04-06T10:43:48.867Z,100504.45
2019-04-06T10:46:22.322Z,100501.05
2019-04-06T10:48:55.714Z,100500.12
2019-04-06T10:51:29.398Z,100439.28
2019-04-06T10:54:03.056Z,100497.57
2019-04-06T10:56:36.714Z,100496.33
2019-04-06T10:59:11.277Z,100501.70
2019-04-06T11:01:44.683Z,100500.14
2019-04-06T11:04:18.344Z,100501.02
2019-04-06T11:06:52.090Z,100494.87
2019-04-06T11:09:25.532Z,100497.53
2019-04-06T11:12:00.597Z,100493.91
2019-04-06T11:14:33.950Z,100493.91
2019-04-06T11:17:08.049Z,100490.80
2019-04-06T11:19:41.485Z,100483.41
2019-04-06T11:22:17.100Z,100487.78
2019-04-06T11:24:49.913Z,100487.78
2019-04-06T11:27:23.265Z,100484.77
2019-04-06T11:29:56.891Z,100489.14
2019-04-06T11:32:30.253Z,100486.12
2019-04-06T11:35:05.373Z,100492.61
2019-04-06T11:37:38.910Z,100485.17
2019-04-06T11:40:12.361Z,100489.55
2019-04-06T11:42:45.678Z,100488.69
2019-04-06T11:45:19.061Z,100491.80
2019-04-06T11:47:52.376Z,100489.64
2019-04-06T11:50:25.828Z,100491.07
2019-04-06T11:52:59.258Z,100484.64
2019-04-06T11:55:32.736Z,100489.06
2019-04-06T11:58:06.233Z,100484.23
2019-04-06T12:00:39.606Z,100485.84
2019-04-06T12:03:12.771Z,100489.46
2019-04-06T12:05:46.355Z,100489.91
2019-04-06T12:08:20.185Z,100489.01
2019-04-06T12:10:53.730Z,100487.70
2019-04-06T12:13:27.337Z,100489.91
2019-04-06T12:16:00.772Z,100492.09
2019-04-06T12:18:34.335Z,100485.66
2019-04-06T12:21:07.727Z,100488.73
2019-04-06T12:23:41.070Z,100489.62
2019-04-06T12:26:14.430Z,100486.11
2019-04-06T12:28:48.018Z,100483.41
2019-04-06T12:31:21.481Z,100482.09
2019-04-06T12:33:56.681Z,100482.55
2019-04-06T12:36:30.158Z,100482.53
2019-04-06T12:39:05.818Z,100482.09
2019-04-06T12:41:39.419Z,100479.92
2019-04-06T12:44:13.891Z,100480.09
2019-04-06T12:46:48.840Z,100480.99
2019-04-06T12:49:22.213Z,100481.84
2019-04-06T12:51:55.637Z,100484.47
2019-04-06T12:54:29.458Z,100481.70
2019-04-06T12:57:03.028Z,100478.62
2019-04-06T12:59:36.559Z,100476.00
2019-04-06T13:02:09.925Z,100466.36
2019-04-06T13:04:43.324Z,100464.05
2019-04-06T13:07:16.698Z,100465.86
2019-04-06T13:09:50.019Z,100465.75
2019-04-06T13:12:23.432Z,100461.41
2019-04-06T13:14:56.911Z,100456.48
2019-04-06T13:17:30.335Z,100459.95
2019-04-06T13:20:05.899Z,100455.23
2019-04-06T13:22:39.581Z,100456.54
2019-04-06T13:25:13.037Z,100453.48
2019-04-06T13:27:46.376Z,100460.76
2019-04-06T13:30:19.945Z,100461.61
2019-04-06T13:32:53.350Z,100460.36
2019-04-06T13:35:26.818Z,100466.41
2019-04-06T13:38:00.513Z,100456.37
2019-04-06T13:40:34.086Z,100454.53
2019-04-06T13:43:07.425Z,100456.73
2019-04-06T13:45:41.179Z,100452.69
2019-04-06T13:48:14.898Z,100450.72
2019-04-06T13:50:48.413Z,100457.06
2019-04-06T13:53:21.759Z,100452.16
2019-04-06T13:55:55.327Z,100446.87
2019-04-06T13:58:29.042Z,100446.77
2019-04-06T14:01:13.843Z,100449.64
2019-04-06T14:03:37.490Z,100451.22
2019-04-06T14:06:11.030Z,100449.45
2019-04-06T14:08:44.417Z,100448.20
2019-04-06T14:11:17.823Z,100452.60
2019-04-06T14:13:51.383Z,100451.27
2019-04-06T14:16:24.876Z,100448.34
2019-04-06T14:18:58.186Z,100451.67
2019-04-06T14:21:31.566Z,100457.30
2019-04-06T14:24:05.335Z,100452.52
2019-04-06T14:26:38.775Z,100446.05
2019-04-06T14:29:12.046Z,100447.35
2019-04-06T14:31:45.373Z,100440.38
2019-04-06T14:34:18.699Z,100448.14
2019-04-06T14:36:53.570Z,100435.81
2019-04-06T14:39:27.298Z,100444.03
2019-04-06T14:42:01.123Z,100442.73
2019-04-06T14:44:34.459Z,100437.97
2019-04-06T14:47:07.885Z,100438.89
2019-04-06T14:49:41.395Z,100436.67
2019-04-06T14:52:15.972Z,100436.67
2019-04-06T14:54:51.014Z,100434.05
2019-04-06T14:57:24.707Z,100425.30
2019-04-06T14:59:58.268Z,100432.66
2019-04-06T15:02:31.755Z,100431.70
2019-04-06T15:05:06.045Z,100431.64
2019-04-06T15:07:39.655Z,100428.95
2019-04-06T15:10:13.011Z,100435.08
2019-04-06T15:12:46.759Z,100429.40
2019-04-06T15:15:20.240Z,100432.39
2019-04-06T15:17:54.864Z,100435.41
2019-04-06T15:20:30.336Z,100434.49
2019-04-06T15:23:03.799Z,100443.25
2019-04-06T15:25:37.386Z,100440.23
2019-04-06T15:28:10.789Z,100438.50
2019-04-06T15:30:44.211Z,100436.39
2019-04-06T15:33:17.631Z,100435.11
2019-04-06T15:35:51.089Z,100438.18
2019-04-06T15:38:24.685Z,100436.87
2019-04-06T15:40:58.079Z,100434.26
2019-04-06T15:43:31.734Z,100431.64
2019-04-06T15:46:05.052Z,100433.41
2019-04-06T15:48:40.066Z,100433.86
2019-04-06T15:51:13.966Z,100433.41
2019-04-06T15:53:47.588Z,100435.67
2019-04-06T15:56:21.055Z,100430.45
2019-04-06T15:58:56.409Z,100425.73
2019-04-06T16:01:29.935Z,100426.72
2019-04-06T16:04:03.763Z,100427.63
2019-04-06T16:06:37.942Z,100423.70
2019-04-06T16:09:11.404Z,100428.54
2019-04-06T16:11:45.223Z,100428.62
2019-04-06T16:14:18.827Z,100425.61
2019-04-06T16:16:52.323Z,100429.24
2019-04-06T16:19:25.781Z,100436.63
2019-04-06T16:21:59.586Z,100436.69
2019-04-06T16:24:33.405Z,100434.15
2019-04-06T16:27:09.476Z,100431.14
2019-04-06T16:29:42.294Z,100432.50
2019-04-06T16:32:16.067Z,100436.42
2019-04-06T16:34:49.739Z,100434.66
2019-04-06T16:37:23.050Z,100429.94
2019-04-06T16:39:56.771Z,100426.50
2019-04-06T16:42:30.093Z,100428.71
2019-04-06T16:45:05.071Z,100427.91
2019-04-06T16:47:38.401Z,100427.12
2019-04-06T16:50:11.809Z,100424.56
2019-04-06T16:52:45.315Z,100424.63
2019-04-06T16:55:18.731Z,100421.67
2019-04-06T16:57:52.144Z,100427.36
2019-04-06T17:00:25.505Z,100418.72
2019-04-06T17:02:58.786Z,100426.11
2019-04-06T17:05:32.242Z,100425.27
2019-04-06T17:08:11.876Z,100433.54
2019-04-06T17:10:41.597Z,100429.58
2019-04-06T17:13:15.161Z,100432.31
2019-04-06T17:15:48.556Z,100430.72
2019-04-06T17:18:21.828Z,100429.09
2019-04-06T17:20:55.280Z,100433.96
2019-04-06T17:23:28.771Z,100431.42
2019-04-06T17:26:02.827Z,100431.42
2019-04-06T17:28:36.665Z,100437.20
2019-04-06T17:31:10.534Z,100431.15
2019-04-06T17:33:44.094Z,100434.28
2019-04-06T17:36:18.227Z,100439.52
2019-04-06T17:38:51.662Z,100435.64
2019-04-06T17:41:24.994Z,100439.61
2019-04-06T17:43:58.322Z,100442.68
2019-04-06T17:46:31.659Z,100445.77
2019-04-06T17:49:06.614Z,100441.90
2019-04-06T17:51:40.129Z,100443.25
2019-04-06T17:54:14.526Z,100440.70
2019-04-06T17:56:48.054Z,100447.27
2019-04-06T17:59:21.425Z,100447.80
2019-04-06T18:01:54.830Z,100450.06
2019-04-06T18:04:29.543Z,100458.80
2019-04-06T18:07:02.816Z,100376.76
2019-04-06T18:09:36.438Z,100467.10
2019-04-06T18:12:10.126Z,100471.52
2019-04-06T18:14:43.751Z,100465.90
2019-04-06T18:17:17.119Z,100468.56
2019-04-06T18:19:50.721Z,100469.48
2019-04-06T18:22:24.277Z,100467.87
2019-04-06T18:24:58.768Z,100470.53
2019-04-06T18:27:31.936Z,100477.51
2019-04-06T18:30:11.370Z,100469.74
2019-04-06T18:32:44.894Z,100475.06
2019-04-06T18:35:18.309Z,100474.67
2019-04-06T18:37:52.706Z,100476.53
2019-04-06T18:40:26.154Z,100479.14
2019-04-06T18:42:59.825Z,100477.43
2019-04-06T18:45:33.255Z,100478.23
2019-04-06T18:48:06.728Z,100477.88
2019-04-06T18:50:40.643Z,100474.87
2019-04-06T18:53:14.113Z,100482.70
2019-04-06T18:55:47.465Z,100476.64
2019-04-06T18:58:20.948Z,100484.97
2019-04-06T19:00:56.261Z,100486.82
2019-04-06T19:03:29.953Z,100485.98
2019-04-06T19:06:03.444Z,100486.48
2019-04-06T19:08:36.774Z,100492.15
2019-04-06T19:11:10.453Z,100497.02
2019-04-06T19:13:43.691Z,100497.05
2019-04-06T19:16:17.844Z,100501.39
2019-04-06T19:18:51.429Z,100497.48
2019-04-06T19:21:25.172Z,100497.53
2019-04-06T19:23:58.959Z,100504.55
2019-04-06T19:26:37.289Z,100507.20
2019-04-06T19:29:10.825Z,100508.02
2019-04-06T19:31:44.520Z,100507.16
2019-04-06T19:34:17.910Z,100505.45
2019-04-06T19:36:51.216Z,100506.36
2019-04-06T19:39:25.136Z,100513.28
2019-04-06T19:41:58.617Z,100518.09
2019-04-06T19:44:32.453Z,100519.82
2019-04-06T19:47:06.446Z,100512.88
2019-04-06T19:49:39.910Z,100515.91
2019-04-06T19:52:13.957Z,100514.20
2019-04-06T19:54:47.299Z,100519.41
2019-04-06T19:57:20.707Z,100514.64
2019-04-06T19:59:54.086Z,100520.77
2019-04-06T20:02:27.481Z,100516.89
2019-04-06T20:07:33.680Z,100509.61
2019-04-06T20:10:07.454Z,100513.08
2019-04-06T20:12:41.288Z,100511.78
2019-04-06T20:15:14.768Z,100514.84
2019-04-06T20:17:48.076Z,100517.90
2019-04-06T20:20:22.311Z,100506.66
2019-04-06T20:22:55.574Z,100510.56
2019-04-06T20:25:29.527Z,100509.76
2019-04-06T20:28:04.646Z,100512.83
2019-04-06T20:30:37.908Z,100510.66
2019-04-06T20:33:11.945Z,100514.13
2019-04-06T20:35:45.243Z,100508.11
2019-04-06T20:38:18.743Z,100515.08
2019-04-06T20:40:52.622Z,100510.31
2019-04-06T20:43:26.362Z,100513.77
2019-04-06T20:45:59.673Z,100505.49
2019-04-06T20:48:33.669Z,100503.23
2019-04-06T20:51:07.271Z,100507.03
2019-04-06T20:53:43.127Z,100514.53
2019-04-06T20:56:17.116Z,100507.85
2019-04-06T20:58:51.167Z,100512.28
2019-04-06T21:01:24.732Z,100513.12
2019-04-06T21:04:02.396Z,100513.07
2019-04-06T21:06:33.457Z,100516.64
2019-04-06T21:09:07.175Z,100524.03
2019-04-06T21:11:40.515Z,100519.76
2019-04-06T21:14:14.378Z,100519.86
2019-04-06T21:16:48.232Z,100513.44
2019-04-06T21:19:21.718Z,100514.38
2019-04-06T21:21:55.571Z,100519.70
2019-04-06T21:24:28.984Z,100519.78
2019-04-06T21:27:03.265Z,100519.44
2019-04-06T21:29:36.700Z,100517.73
2019-04-06T21:32:10.573Z,100515.17
2019-04-06T21:34:43.884Z,100512.92
2019-04-06T21:37:17.855Z,100511.53
2019-04-06T21:39:51.217Z,100509.36
2019-04-06T21:42:24.631Z,100505.95
2019-04-06T21:44:58.243Z,100505.95
2019-04-06T21:47:32.471Z,100504.28
2019-04-06T21:50:06.881Z,100512.60
2019-04-06T21:52:40.438Z,100511.30
2019-04-06T21:55:15.178Z,100515.21
2019-04-06T21:57:48.530Z,100513.47
2019-04-06T22:00:22.512Z,100510.45
2019-04-06T22:02:57.820Z,100518.33
2019-04-06T22:05:31.666Z,100512.66
2019-04-06T22:08:05.262Z,100509.16
2019-04-06T22:10:39.002Z,100506.95
2019-04-06T22:13:13.122Z,100498.72
2019-04-06T22:15:47.185Z,100500.92
2019-04-06T22:18:20.559Z,100504.79
2019-04-06T22:20:54.548Z,100513.47
2019-04-06T22:23:39.748Z,100516.16
2019-04-06T22:26:03.226Z,100510.19
2019-04-06T22:28:36.828Z,100511.91
2019-04-06T22:31:10.223Z,100511.98
2019-04-06T22:33:43.577Z,100504.66
2019-04-06T22:36:16.995Z,100502.96
2019-04-06T22:38:50.319Z,100496.53
2019-04-06T22:41:23.917Z,100494.37
2019-04-06T22:43:57.279Z,100493.56
2019-04-06T22:46:31.568Z,100489.38
2019-04-06T22:49:05.609Z,100488.41
2019-04-06T22:51:39.109Z,100487.09
2019-04-06T22:54:12.820Z,100487.59
2019-04-06T22:56:47.246Z,100479.81
2019-04-06T22:59:20.559Z,100478.55
2019-04-06T23:01:53.982Z,100475.10
2019-04-06T23:04:27.375Z,100475.14
2019-04-06T23:07:00.887Z,100472.58
2019-04-06T23:09:34.234Z,100474.78
2019-04-06T23:12:07.848Z,100475.72
2019-04-06T23:14:41.149Z,100481.35
2019-04-06T23:17:14.718Z,100474.47
2019-04-06T23:19:48.481Z,100468.00
2019-04-06T23:22:21.949Z,100472.36
2019-04-06T23:24:56.349Z,100471.91
2019-04-06T23:27:30.763Z,100468.48
2019-04-06T23:30:07.626Z,100461.95
2019-04-06T23:32:41.264Z,100466.31
2019-04-06T23:35:15.214Z,100464.16
2019-04-06T23:37:48.593Z,100456.38
2019-04-06T23:40:22.456Z,100459.43
2019-04-06T23:42:56.550Z,100459.06
2019-04-06T23:45:30.059Z,100466.88
2019-04-06T23:48:03.736Z,100461.27
2019-04-06T23:50:39.523Z,100456.92
2019-04-06T23:53:13.621Z,100455.21
2019-04-06T23:55:47.024Z,100457.81
2019-04-06T23:58:20.949Z,100450.45
